createdAt,value
2018-10-12T00:04:19.194Z,99.90
2018-10-12T00:09:23.115Z,99.90
2018-10-12T00:14:27.485Z,99.90
2018-10-12T00:19:30.909Z,99.90
2018-10-12T00:24:34.209Z,99.90
2018-10-12T00:29:37.453Z,99.90
2018-10-12T00:34:40.763Z,99.90
2018-10-12T00:39:44.017Z,99.90
2018-10-12T00:44:47.275Z,99.90
2018-10-12T00:49:50.716Z,99.90
2018-10-12T00:54:53.895Z,99.90
2018-10-12T00:59:57.939Z,99.90
2018-10-12T01:05:01.867Z,99.90
2018-10-12T01:10:06.044Z,99.90
2018-10-12T01:15:15.420Z,99.90
2018-10-12T01:20:18.764Z,99.90
2018-10-12T01:25:23.447Z,99.90
2018-10-12T01:30:26.786Z,99.90
2018-10-12T01:35:30.097Z,99.90
2018-10-12T01:40:33.556Z,99.90
2018-10-12T01:45:36.836Z,99.90
2018-10-12T01:50:40.119Z,99.90
2018-10-12T01:55:43.371Z,99.90
2018-10-12T02:00:47.297Z,99.90
2018-10-12T02:05:50.737Z,99.90
2018-10-12T02:10:54.000Z,99.90
2018-10-12T02:15:58.106Z,99.90
2018-10-12T02:21:01.785Z,99.90
2018-10-12T02:26:05.096Z,99.90
2018-10-12T02:31:08.332Z,99.90
2018-10-12T02:36:11.629Z,99.90
2018-10-12T02:41:14.876Z,99.90
2018-10-12T02:46:18.148Z,99.90
2018-10-12T02:51:21.470Z,99.90
2018-10-12T02:56:24.870Z,99.90
2018-10-12T03:01:28.131Z,99.90
2018-10-12T03:06:31.492Z,99.90
2018-10-12T03:11:34.790Z,99.90
2018-10-12T03:21:44.357Z,99.90
2018-10-12T03:26:57.520Z,99.90
2018-10-12T03:32:02.281Z,99.90
2018-10-12T03:37:05.821Z,99.90
2018-10-12T03:42:09.101Z,99.90
2018-10-12T03:47:13.055Z,99.90
2018-10-12T03:52:16.328Z,99.90
2018-10-12T03:57:19.624Z,99.90
2018-10-12T04:02:23.133Z,99.90
2018-10-12T04:07:26.607Z,99.90
2018-10-12T04:12:30.098Z,99.90
2018-10-12T04:17:33.514Z,99.90
2018-10-12T04:22:37.040Z,99.90
2018-10-12T04:27:40.422Z,99.90
2018-10-12T04:32:56.082Z,99.90
2018-10-12T04:38:00.840Z,99.90
2018-10-12T04:43:05.261Z,99.90
2018-10-12T04:48:12.304Z,99.90
2018-10-12T04:53:15.751Z,99.90
2018-10-12T04:58:19.258Z,99.90
2018-10-12T05:03:22.695Z,99.90
2018-10-12T05:08:26.202Z,99.90
2018-10-12T05:13:30.883Z,99.90
2018-10-12T05:18:35.315Z,99.90
2018-10-12T05:23:38.806Z,99.90
2018-10-12T05:28:42.581Z,99.90
2018-10-12T05:33:46.674Z,99.90
2018-10-12T05:38:50.317Z,99.90
2018-10-12T05:43:54.088Z,99.90
2018-10-12T05:49:10.048Z,99.90
2018-10-12T05:54:14.321Z,99.90
2018-10-12T05:59:18.009Z,99.90
2018-10-12T06:04:21.498Z,99.90
2018-10-12T06:09:25.188Z,99.90
2018-10-12T06:14:30.064Z,99.90
2018-10-12T06:19:33.679Z,99.90
2018-10-12T06:24:37.322Z,99.90
2018-10-12T06:29:40.810Z,99.90
2018-10-12T06:34:44.445Z,99.90
2018-10-12T06:39:47.889Z,99.90
2018-10-12T06:44:51.382Z,99.90
2018-10-12T06:49:54.975Z,99.90
2018-10-12T06:54:58.381Z,99.90
2018-10-12T07:00:01.864Z,99.90
2018-10-12T07:05:05.231Z,99.90
2018-10-12T07:10:08.699Z,99.90
2018-10-12T07:15:12.049Z,99.90
2018-10-12T07:20:15.422Z,99.90
2018-10-12T07:25:18.867Z,99.90
2018-10-12T07:30:22.293Z,99.90
2018-10-12T07:35:25.709Z,99.90
2018-10-12T07:40:29.237Z,99.90
2018-10-12T07:45:32.737Z,99.90
2018-10-12T07:50:37.425Z,99.90
2018-10-12T07:55:54.753Z,99.90
2018-10-12T08:01:00.173Z,99.90
2018-10-12T08:06:04.155Z,99.90
2018-10-12T08:11:08.289Z,99.90
2018-10-12T08:16:11.682Z,99.90
2018-10-12T08:21:15.373Z,99.90
2018-10-12T08:26:19.412Z,99.90
2018-10-12T08:31:23.296Z,99.90
2018-10-12T08:36:26.699Z,99.90
2018-10-12T08:41:30.177Z,99.90
2018-10-12T08:51:53.082Z,99.90
2018-10-12T08:56:56.488Z,99.90
2018-10-12T09:01:59.998Z,99.90
2018-10-12T09:07:03.417Z,99.90
2018-10-12T09:12:06.852Z,99.90
2018-10-12T09:17:10.866Z,99.90
2018-10-12T09:22:14.181Z,99.90
2018-10-12T09:27:17.729Z,99.90
2018-10-12T09:32:21.073Z,99.90
2018-10-12T09:37:25.772Z,99.90
2018-10-12T09:42:34.931Z,99.90
2018-10-12T09:47:38.404Z,99.90
2018-10-12T09:52:41.744Z,99.90
2018-10-12T09:57:45.130Z,99.90
2018-10-12T10:03:07.614Z,99.90
2018-10-12T10:08:11.052Z,99.90
2018-10-12T10:13:14.260Z,99.90
2018-10-12T10:18:19.042Z,99.90
2018-10-12T10:23:22.351Z,99.90
2018-10-12T10:28:25.670Z,99.90
2018-10-12T10:33:29.034Z,99.90
2018-10-12T10:38:32.617Z,99.90
2018-10-12T10:43:35.886Z,99.90
2018-10-12T10:48:39.156Z,99.90
2018-10-12T10:53:46.950Z,99.90
2018-10-12T11:04:19.436Z,99.90
2018-10-12T11:09:24.380Z,99.90
2018-10-12T11:14:29.345Z,99.90
2018-10-12T11:19:36.331Z,99.90
2018-10-12T11:24:43.005Z,99.90
2018-10-12T11:29:55.578Z,99.90
2018-10-12T11:35:00.660Z,99.10
2018-10-12T11:40:04.421Z,99.90
2018-10-12T11:45:08.472Z,99.90
2018-10-12T11:50:14.565Z,99.10
2018-10-12T11:55:37.615Z,98.80
2018-10-12T12:00:44.563Z,99.10
2018-10-12T12:05:48.282Z,99.20
2018-10-12T12:10:52.468Z,98.50
2018-10-12T12:15:57.159Z,98.30
2018-10-12T12:21:02.362Z,97.40
2018-10-12T12:26:12.915Z,97.60
2018-10-12T12:31:22.644Z,97.10
2018-10-12T12:36:26.384Z,96.10
2018-10-12T12:41:33.259Z,97.20
2018-10-12T12:46:37.547Z,95.80
2018-10-12T12:51:45.582Z,95.60
2018-10-12T12:56:49.286Z,94.50
2018-10-12T13:01:59.730Z,94.20
2018-10-12T13:07:03.986Z,95.60
2018-10-12T13:12:08.017Z,94.80
2018-10-12T13:17:12.299Z,93.40
2018-10-12T13:22:15.646Z,93.30
2018-10-12T13:27:19.228Z,94.00
2018-10-12T13:32:22.627Z,93.90
2018-10-12T13:37:25.976Z,93.70
2018-10-12T13:42:29.428Z,93.20
2018-10-12T13:47:32.959Z,93.30
2018-10-12T13:52:37.887Z,92.30
2018-10-12T13:57:42.665Z,93.00
2018-10-12T14:02:46.322Z,92.90
2018-10-12T14:07:50.201Z,92.60
2018-10-12T14:12:54.473Z,91.90
2018-10-12T14:17:58.263Z,91.50
2018-10-12T14:23:02.498Z,91.70
2018-10-12T14:28:06.124Z,91.00
2018-10-12T14:33:10.488Z,90.80
2018-10-12T14:38:15.460Z,91.00
2018-10-12T14:43:20.469Z,90.30
2018-10-12T14:48:23.836Z,90.40
2018-10-12T14:53:28.398Z,91.00
2018-10-12T14:58:41.878Z,91.10
2018-10-12T15:03:47.790Z,91.10
2018-10-12T15:08:53.514Z,90.70
2018-10-12T15:13:58.025Z,90.60
2018-10-12T15:19:02.252Z,90.80
2018-10-12T15:24:07.926Z,90.90
2018-10-12T15:29:11.866Z,91.80
2018-10-12T15:34:15.793Z,92.30
2018-10-12T15:39:22.095Z,93.20
2018-10-12T15:44:27.581Z,93.30
2018-10-12T15:49:34.155Z,93.70
2018-10-12T15:54:39.593Z,93.20
2018-10-12T15:59:42.935Z,94.30
2018-10-12T16:04:49.433Z,94.60
2018-10-12T16:09:53.673Z,95.90
2018-10-12T16:15:06.718Z,96.10
2018-10-12T16:20:14.472Z,96.80
2018-10-12T16:26:00.633Z,97.30
2018-10-12T16:31:04.056Z,97.70
2018-10-12T16:36:07.565Z,99.00
2018-10-12T16:41:10.906Z,99.60
2018-10-12T16:46:14.288Z,99.90
2018-10-12T16:51:17.957Z,99.90
2018-10-12T16:56:21.426Z,99.90
2018-10-12T17:01:24.829Z,99.90
2018-10-12T17:06:28.269Z,99.90
2018-10-12T17:11:31.694Z,99.90
2018-10-12T17:16:35.136Z,99.90
2018-10-12T17:21:38.740Z,99.90
2018-10-12T17:26:43.507Z,99.90
2018-10-12T17:31:47.008Z,99.90
2018-10-12T17:36:51.242Z,99.90
2018-10-12T17:41:54.698Z,99.90
2018-10-12T17:46:58.264Z,99.90
2018-10-12T17:52:01.726Z,99.90
2018-10-12T17:57:05.833Z,99.90
2018-10-12T18:02:09.518Z,99.90
2018-10-12T18:07:12.871Z,99.90
2018-10-12T18:12:16.342Z,99.90
2018-10-12T18:17:19.832Z,99.90
2018-10-12T18:22:23.161Z,99.90
2018-10-12T18:27:26.538Z,99.90
2018-10-12T18:32:30.045Z,99.90
2018-10-12T18:37:33.375Z,99.90
2018-10-12T18:42:36.812Z,99.90
2018-10-12T18:47:40.397Z,99.90
2018-10-12T18:52:43.819Z,99.90
2018-10-12T18:57:47.274Z,99.90
2018-10-12T19:02:50.703Z,99.90
2018-10-12T19:07:54.242Z,99.90
2018-10-12T19:12:57.789Z,99.90
2018-10-12T19:18:01.797Z,99.90
2018-10-12T19:23:05.380Z,99.90
2018-10-12T19:28:08.785Z,99.90
2018-10-12T19:33:12.237Z,99.90
2018-10-12T19:38:15.880Z,99.90
2018-10-12T19:43:19.324Z,99.90
2018-10-12T19:48:22.850Z,99.90
2018-10-12T19:53:26.282Z,99.90
2018-10-12T19:58:29.857Z,99.90
2018-10-12T20:03:33.353Z,99.90
2018-10-12T20:08:36.693Z,99.90
2018-10-12T20:13:40.130Z,99.90
2018-10-12T20:18:43.758Z,99.90
2018-10-12T20:23:47.273Z,99.90
2018-10-12T20:28:50.938Z,99.90
2018-10-12T20:33:54.407Z,99.90
2018-10-12T20:38:57.826Z,99.90
2018-10-12T20:44:01.311Z,99.90
2018-10-12T20:49:04.802Z,99.90
2018-10-12T20:54:08.420Z,99.90
2018-10-12T20:59:12.452Z,99.90
2018-10-12T21:04:15.864Z,99.90
2018-10-12T21:09:19.330Z,99.90
2018-10-12T21:14:23.498Z,99.90
2018-10-12T21:19:27.015Z,99.90
2018-10-12T21:24:30.561Z,99.90
2018-10-12T21:29:33.927Z,99.90
2018-10-12T21:34:38.595Z,99.90
2018-10-12T21:39:42.084Z,99.90
2018-10-12T21:44:45.698Z,99.90
2018-10-12T21:49:49.332Z,99.90
2018-10-12T21:54:52.778Z,99.90
2018-10-12T21:59:56.400Z,99.90
2018-10-12T22:05:01.218Z,99.90
2018-10-12T22:10:06.715Z,99.90
2018-10-12T22:15:10.162Z,99.90
2018-10-12T22:20:13.850Z,99.90
2018-10-12T22:25:17.392Z,99.90
2018-10-12T22:30:20.938Z,99.90
2018-10-12T22:35:24.410Z,99.90
2018-10-12T22:40:27.950Z,99.90
2018-10-12T22:45:31.457Z,99.90
2018-10-12T22:50:34.891Z,99.90
2018-10-12T22:55:38.796Z,99.90
2018-10-12T23:00:42.316Z,99.90
2018-10-12T23:05:45.939Z,99.90
2018-10-12T23:10:49.550Z,99.90
2018-10-12T23:15:52.997Z,99.90
2018-10-12T23:20:56.579Z,99.90
2018-10-12T23:26:00.264Z,99.90
2018-10-12T23:31:03.753Z,99.90
2018-10-12T23:36:07.353Z,99.90
2018-10-12T23:41:10.834Z,99.90
2018-10-12T23:46:14.244Z,99.90
2018-10-12T23:51:17.779Z,99.90
2018-10-12T23:56:21.479Z,99.90
